sensor_id;sensor_type;location;lat;lon;timestamp;P1;durP1;ratioP1;P2;durP2;ratioP2
50379;SDS011;37474;59.468;18.040;2023-07-02T00:00:33;3.67;;;2.00;;
50379;SDS011;37474;59.468;18.040;2023-07-02T00:03:06;2.33;;;1.93;;
50379;SDS011;37474;59.468;18.040;2023-07-02T00:05:36;3.20;;;2.07;;
50379;SDS011;37474;59.468;18.040;2023-07-02T00:08:05;2.77;;;2.07;;
50379;SDS011;37474;59.468;18.040;2023-07-02T00:10:34;2.27;;;1.90;;
50379;SDS011;37474;59.468;18.040;2023-07-02T00:13:03;3.37;;;1.90;;
50379;SDS011;37474;59.468;18.040;2023-07-02T00:15:32;2.90;;;1.87;;
50379;SDS011;37474;59.468;18.040;2023-07-02T00:18:01;2.90;;;1.83;;
50379;SDS011;37474;59.468;18.040;2023-07-02T00:20:32;2.80;;;1.80;;
50379;SDS011;37474;59.468;18.040;2023-07-02T00:23:04;2.30;;;2.00;;
50379;SDS011;37474;59.468;18.040;2023-07-02T00:25:34;2.90;;;2.17;;
50379;SDS011;37474;59.468;18.040;2023-07-02T00:28:03;3.63;;;2.10;;
50379;SDS011;37474;59.468;18.040;2023-07-02T00:30:32;2.20;;;1.77;;
50379;SDS011;37474;59.468;18.040;2023-07-02T00:33:01;3.40;;;1.90;;
50379;SDS011;37474;59.468;18.040;2023-07-02T00:35:31;3.00;;;2.20;;
50379;SDS011;37474;59.468;18.040;2023-07-02T00:38:00;5.05;;;2.30;;
50379;SDS011;37474;59.468;18.040;2023-07-02T00:40:29;2.30;;;2.00;;
50379;SDS011;37474;59.468;18.040;2023-07-02T00:42:58;2.40;;;2.20;;
50379;SDS011;37474;59.468;18.040;2023-07-02T00:45:26;2.67;;;2.07;;
50379;SDS011;37474;59.468;18.040;2023-07-02T00:47:56;3.63;;;2.33;;
50379;SDS011;37474;59.468;18.040;2023-07-02T00:50:25;3.30;;;2.55;;
50379;SDS011;37474;59.468;18.040;2023-07-02T00:52:56;8.07;;;2.17;;
50379;SDS011;37474;59.468;18.040;2023-07-02T00:55:25;2.93;;;2.57;;
50379;SDS011;37474;59.468;18.040;2023-07-02T00:57:54;4.07;;;2.70;;
50379;SDS011;37474;59.468;18.040;2023-07-02T01:00:23;3.63;;;2.73;;
50379;SDS011;37474;59.468;18.040;2023-07-02T01:02:55;2.50;;;2.30;;
50379;SDS011;37474;59.468;18.040;2023-07-02T01:05:26;2.97;;;2.50;;
50379;SDS011;37474;59.468;18.040;2023-07-02T01:08:03;3.33;;;2.37;;
50379;SDS011;37474;59.468;18.040;2023-07-02T01:10:33;2.50;;;2.10;;
50379;SDS011;37474;59.468;18.040;2023-07-02T01:13:05;2.77;;;2.50;;
50379;SDS011;37474;59.468;18.040;2023-07-02T01:15:37;3.23;;;2.80;;
50379;SDS011;37474;59.468;18.040;2023-07-02T01:18:06;3.00;;;2.60;;
50379;SDS011;37474;59.468;18.040;2023-07-02T01:20:37;3.38;;;2.70;;
50379;SDS011;37474;59.468;18.040;2023-07-02T01:23:07;3.90;;;2.57;;
50379;SDS011;37474;59.468;18.040;2023-07-02T01:25:36;4.53;;;3.42;;
50379;SDS011;37474;59.468;18.040;2023-07-02T01:28:05;3.50;;;3.20;;
50379;SDS011;37474;59.468;18.040;2023-07-02T01:30:34;3.83;;;3.43;;
50379;SDS011;37474;59.468;18.040;2023-07-02T01:33:06;4.57;;;3.63;;
50379;SDS011;37474;59.468;18.040;2023-07-02T01:35:36;3.70;;;3.40;;
50379;SDS011;37474;59.468;18.040;2023-07-02T01:38:05;7.30;;;3.35;;
50379;SDS011;37474;59.468;18.040;2023-07-02T01:40:34;4.10;;;3.20;;
50379;SDS011;37474;59.468;18.040;2023-07-02T01:43:02;7.00;;;3.20;;
50379;SDS011;37474;59.468;18.040;2023-07-02T01:45:31;4.03;;;3.20;;
50379;SDS011;37474;59.468;18.040;2023-07-02T01:48:00;3.73;;;3.00;;
50379;SDS011;37474;59.468;18.040;2023-07-02T01:50:29;4.60;;;3.00;;
50379;SDS011;37474;59.468;18.040;2023-07-02T01:52:59;3.10;;;2.80;;
50379;SDS011;37474;59.468;18.040;2023-07-02T01:55:28;4.38;;;3.00;;
50379;SDS011;37474;59.468;18.040;2023-07-02T01:57:56;2.90;;;2.60;;
50379;SDS011;37474;59.468;18.040;2023-07-02T02:00:25;3.60;;;2.80;;
50379;SDS011;37474;59.468;18.040;2023-07-02T02:02:54;4.17;;;2.60;;
50379;SDS011;37474;59.468;18.040;2023-07-02T02:05:23;2.70;;;2.50;;
50379;SDS011;37474;59.468;18.040;2023-07-02T02:07:51;5.40;;;2.87;;
50379;SDS011;37474;59.468;18.040;2023-07-02T02:10:22;4.47;;;2.97;;
50379;SDS011;37474;59.468;18.040;2023-07-02T02:12:50;3.50;;;2.58;;
50379;SDS011;37474;59.468;18.040;2023-07-02T02:15:19;3.00;;;2.40;;
50379;SDS011;37474;59.468;18.040;2023-07-02T02:17:48;2.83;;;2.63;;
50379;SDS011;37474;59.468;18.040;2023-07-02T02:20:18;2.60;;;2.40;;
50379;SDS011;37474;59.468;18.040;2023-07-02T02:22:47;3.00;;;2.72;;
50379;SDS011;37474;59.468;18.040;2023-07-02T02:25:16;3.50;;;2.40;;
50379;SDS011;37474;59.468;18.040;2023-07-02T02:27:46;2.53;;;2.33;;
50379;SDS011;37474;59.468;18.040;2023-07-02T02:30:14;4.10;;;2.92;;
50379;SDS011;37474;59.468;18.040;2023-07-02T02:32:43;3.90;;;2.47;;
50379;SDS011;37474;59.468;18.040;2023-07-02T02:35:12;2.80;;;2.60;;
50379;SDS011;37474;59.468;18.040;2023-07-02T02:37:41;3.00;;;2.53;;
50379;SDS011;37474;59.468;18.040;2023-07-02T02:40:10;3.05;;;2.33;;
50379;SDS011;37474;59.468;18.040;2023-07-02T02:42:40;4.20;;;2.50;;
50379;SDS011;37474;59.468;18.040;2023-07-02T02:45:10;3.60;;;2.33;;
50379;SDS011;37474;59.468;18.040;2023-07-02T02:47:39;3.80;;;2.20;;
50379;SDS011;37474;59.468;18.040;2023-07-02T02:50:08;3.67;;;2.45;;
50379;SDS011;37474;59.468;18.040;2023-07-02T02:52:40;2.65;;;2.30;;
50379;SDS011;37474;59.468;18.040;2023-07-02T02:55:09;3.38;;;2.58;;
50379;SDS011;37474;59.468;18.040;2023-07-02T02:57:39;2.85;;;2.20;;
50379;SDS011;37474;59.468;18.040;2023-07-02T03:00:08;3.67;;;2.80;;
50379;SDS011;37474;59.468;18.040;2023-07-02T03:02:39;4.03;;;2.17;;
50379;SDS011;37474;59.468;18.040;2023-07-02T03:05:08;4.55;;;2.50;;
50379;SDS011;37474;59.468;18.040;2023-07-02T03:07:37;4.38;;;2.50;;
50379;SDS011;37474;59.468;18.040;2023-07-02T03:10:06;2.63;;;2.42;;
50379;SDS011;37474;59.468;18.040;2023-07-02T03:12:35;2.50;;;2.30;;
50379;SDS011;37474;59.468;18.040;2023-07-02T03:15:05;3.00;;;2.72;;
50379;SDS011;37474;59.468;18.040;2023-07-02T03:20:05;3.80;;;2.72;;
50379;SDS011;37474;59.468;18.040;2023-07-02T03:22:35;2.50;;;2.25;;
50379;SDS011;37474;59.468;18.040;2023-07-02T03:25:04;2.60;;;2.40;;
50379;SDS011;37474;59.468;18.040;2023-07-02T03:27:33;3.38;;;2.40;;
50379;SDS011;37474;59.468;18.040;2023-07-02T03:30:03;3.67;;;2.47;;
50379;SDS011;37474;59.468;18.040;2023-07-02T03:32:32;2.75;;;2.30;;
50379;SDS011;37474;59.468;18.040;2023-07-02T03:35:02;3.75;;;2.47;;
50379;SDS011;37474;59.468;18.040;2023-07-02T03:37:31;2.75;;;2.45;;
50379;SDS011;37474;59.468;18.040;2023-07-02T03:40:00;2.88;;;2.45;;
50379;SDS011;37474;59.468;18.040;2023-07-02T03:42:29;3.65;;;2.75;;
50379;SDS011;37474;59.468;18.040;2023-07-02T03:44:57;5.95;;;2.92;;
50379;SDS011;37474;59.468;18.040;2023-07-02T03:47:26;4.43;;;3.00;;
50379;SDS011;37474;59.468;18.040;2023-07-02T03:49:55;3.85;;;2.60;;
50379;SDS011;37474;59.468;18.040;2023-07-02T03:52:25;4.60;;;3.10;;
50379;SDS011;37474;59.468;18.040;2023-07-02T03:54:54;3.60;;;2.80;;
50379;SDS011;37474;59.468;18.040;2023-07-02T03:57:22;5.03;;;3.20;;
50379;SDS011;37474;59.468;18.040;2023-07-02T03:59:53;3.33;;;2.50;;
50379;SDS011;37474;59.468;18.040;2023-07-02T04:02:21;4.53;;;2.75;;
50379;SDS011;37474;59.468;18.040;2023-07-02T04:04:50;3.70;;;3.10;;
50379;SDS011;37474;59.468;18.040;2023-07-02T04:07:19;4.28;;;3.15;;
50379;SDS011;37474;59.468;18.040;2023-07-02T04:09:49;3.72;;;2.85;;
50379;SDS011;37474;59.468;18.040;2023-07-02T04:12:18;3.33;;;2.88;;
50379;SDS011;37474;59.468;18.040;2023-07-02T04:14:46;3.90;;;2.78;;
50379;SDS011;37474;59.468;18.040;2023-07-02T04:17:15;3.80;;;2.78;;
50379;SDS011;37474;59.468;18.040;2023-07-02T04:19:44;4.40;;;3.03;;
50379;SDS011;37474;59.468;18.040;2023-07-02T04:22:12;4.05;;;3.33;;
50379;SDS011;37474;59.468;18.040;2023-07-02T04:24:41;4.63;;;3.45;;
50379;SDS011;37474;59.468;18.040;2023-07-02T04:27:15;4.75;;;2.90;;
50379;SDS011;37474;59.468;18.040;2023-07-02T04:30:05;5.82;;;3.20;;
50379;SDS011;37474;59.468;18.040;2023-07-02T04:32:35;4.75;;;3.25;;
50379;SDS011;37474;59.468;18.040;2023-07-02T04:35:06;3.92;;;2.92;;
50379;SDS011;37474;59.468;18.040;2023-07-02T04:37:35;5.57;;;2.85;;
50379;SDS011;37474;59.468;18.040;2023-07-02T04:40:06;3.85;;;3.17;;
50379;SDS011;37474;59.468;18.040;2023-07-02T04:42:38;5.05;;;3.15;;
50379;SDS011;37474;59.468;18.040;2023-07-02T04:45:08;4.03;;;3.20;;
50379;SDS011;37474;59.468;18.040;2023-07-02T04:47:37;4.28;;;3.20;;
50379;SDS011;37474;59.468;18.040;2023-07-02T04:50:06;4.30;;;2.90;;
50379;SDS011;37474;59.468;18.040;2023-07-02T04:52:35;4.03;;;3.00;;
50379;SDS011;37474;59.468;18.040;2023-07-02T04:55:04;3.95;;;3.10;;
50379;SDS011;37474;59.468;18.040;2023-07-02T04:57:34;3.10;;;2.80;;
50379;SDS011;37474;59.468;18.040;2023-07-02T05:00:05;4.00;;;3.20;;
50379;SDS011;37474;59.468;18.040;2023-07-02T05:02:35;4.40;;;2.75;;
50379;SDS011;37474;59.468;18.040;2023-07-02T05:05:04;6.13;;;3.03;;
50379;SDS011;37474;59.468;18.040;2023-07-02T05:07:33;4.77;;;2.93;;
50379;SDS011;37474;59.468;18.040;2023-07-02T05:10:02;3.10;;;2.38;;
50379;SDS011;37474;59.468;18.040;2023-07-02T05:12:32;2.72;;;2.40;;
50379;SDS011;37474;59.468;18.040;2023-07-02T05:15:01;3.63;;;2.50;;
50379;SDS011;37474;59.468;18.040;2023-07-02T05:17:31;3.58;;;2.40;;
50379;SDS011;37474;59.468;18.040;2023-07-02T05:20:02;2.95;;;2.50;;
50379;SDS011;37474;59.468;18.040;2023-07-02T05:22:31;3.85;;;2.15;;
50379;SDS011;37474;59.468;18.040;2023-07-02T05:25:00;3.20;;;2.60;;
50379;SDS011;37474;59.468;18.040;2023-07-02T05:27:29;3.03;;;2.45;;
50379;SDS011;37474;59.468;18.040;2023-07-02T05:29:58;5.32;;;2.92;;
50379;SDS011;37474;59.468;18.040;2023-07-02T05:32:27;4.40;;;2.45;;
50379;SDS011;37474;59.468;18.040;2023-07-02T05:34:57;2.50;;;2.30;;
50379;SDS011;37474;59.468;18.040;2023-07-02T05:37:26;3.58;;;2.63;;
50379;SDS011;37474;59.468;18.040;2023-07-02T05:39:54;3.45;;;2.60;;
50379;SDS011;37474;59.468;18.040;2023-07-02T05:42:23;4.57;;;2.33;;
50379;SDS011;37474;59.468;18.040;2023-07-02T05:44:52;3.42;;;2.60;;
50379;SDS011;37474;59.468;18.040;2023-07-02T05:47:21;4.25;;;2.30;;
50379;SDS011;37474;59.468;18.040;2023-07-02T05:49:49;4.55;;;2.60;;
50379;SDS011;37474;59.468;18.040;2023-07-02T05:52:19;4.35;;;2.60;;
50379;SDS011;37474;59.468;18.040;2023-07-02T05:54:49;5.75;;;2.65;;
50379;SDS011;37474;59.468;18.040;2023-07-02T05:57:18;2.80;;;2.50;;
50379;SDS011;37474;59.468;18.040;2023-07-02T05:59:46;4.00;;;2.45;;
50379;SDS011;37474;59.468;18.040;2023-07-02T06:02:15;4.00;;;2.38;;
50379;SDS011;37474;59.468;18.040;2023-07-02T06:04:44;3.50;;;2.42;;
50379;SDS011;37474;59.468;18.040;2023-07-02T06:07:13;4.75;;;2.80;;
50379;SDS011;37474;59.468;18.040;2023-07-02T06:09:43;4.40;;;2.75;;
50379;SDS011;37474;59.468;18.040;2023-07-02T06:12:12;3.63;;;2.70;;
50379;SDS011;37474;59.468;18.040;2023-07-02T06:14:41;4.05;;;2.60;;
50379;SDS011;37474;59.468;18.040;2023-07-02T06:17:09;3.05;;;2.60;;
50379;SDS011;37474;59.468;18.040;2023-07-02T06:19:38;3.40;;;2.58;;
50379;SDS011;37474;59.468;18.040;2023-07-02T06:22:07;3.05;;;2.60;;
50379;SDS011;37474;59.468;18.040;2023-07-02T06:24:35;3.65;;;2.53;;
50379;SDS011;37474;59.468;18.040;2023-07-02T06:27:06;3.67;;;2.55;;
50379;SDS011;37474;59.468;18.040;2023-07-02T06:29:34;3.63;;;2.60;;
50379;SDS011;37474;59.468;18.040;2023-07-02T06:32:03;4.43;;;2.80;;
50379;SDS011;37474;59.468;18.040;2023-07-02T06:34:33;3.35;;;2.63;;
50379;SDS011;37474;59.468;18.040;2023-07-02T06:37:03;4.25;;;3.03;;
50379;SDS011;37474;59.468;18.040;2023-07-02T06:39:32;3.42;;;2.53;;
50379;SDS011;37474;59.468;18.040;2023-07-02T06:42:01;3.25;;;2.72;;
50379;SDS011;37474;59.468;18.040;2023-07-02T06:44:31;3.65;;;2.55;;
50379;SDS011;37474;59.468;18.040;2023-07-02T06:47:00;4.65;;;2.75;;
50379;SDS011;37474;59.468;18.040;2023-07-02T06:49:28;5.05;;;2.65;;
50379;SDS011;37474;59.468;18.040;2023-07-02T06:51:57;4.68;;;2.67;;
50379;SDS011;37474;59.468;18.040;2023-07-02T06:54:27;5.05;;;2.65;;
50379;SDS011;37474;59.468;18.040;2023-07-02T06:56:56;4.70;;;2.63;;
50379;SDS011;37474;59.468;18.040;2023-07-02T06:59:25;3.75;;;2.88;;
50379;SDS011;37474;59.468;18.040;2023-07-02T07:01:55;3.58;;;2.42;;
50379;SDS011;37474;59.468;18.040;2023-07-02T07:04:24;3.58;;;2.78;;
50379;SDS011;37474;59.468;18.040;2023-07-02T07:06:53;4.35;;;2.83;;
50379;SDS011;37474;59.468;18.040;2023-07-02T07:09:22;4.40;;;3.08;;
50379;SDS011;37474;59.468;18.040;2023-07-02T07:11:52;4.70;;;3.08;;
50379;SDS011;37474;59.468;18.040;2023-07-02T07:14:20;4.53;;;2.70;;
50379;SDS011;37474;59.468;18.040;2023-07-02T07:16:49;3.22;;;2.40;;
50379;SDS011;37474;59.468;18.040;2023-07-02T07:19:19;3.65;;;3.00;;
50379;SDS011;37474;59.468;18.040;2023-07-02T07:21:48;4.93;;;2.83;;
50379;SDS011;37474;59.468;18.040;2023-07-02T07:24:17;4.15;;;2.85;;
50379;SDS011;37474;59.468;18.040;2023-07-02T07:26:45;5.80;;;3.00;;
50379;SDS011;37474;59.468;18.040;2023-07-02T07:29:14;4.88;;;3.25;;
50379;SDS011;37474;59.468;18.040;2023-07-02T07:31:43;4.35;;;3.03;;
50379;SDS011;37474;59.468;18.040;2023-07-02T07:34:12;3.17;;;2.65;;
50379;SDS011;37474;59.468;18.040;2023-07-02T07:36:43;3.33;;;3.03;;
50379;SDS011;37474;59.468;18.040;2023-07-02T07:39:11;5.72;;;3.05;;
50379;SDS011;37474;59.468;18.040;2023-07-02T07:41:40;6.15;;;3.20;;
50379;SDS011;37474;59.468;18.040;2023-07-02T07:44:10;4.40;;;2.83;;
50379;SDS011;37474;59.468;18.040;2023-07-02T07:46:38;3.80;;;2.70;;
50379;SDS011;37474;59.468;18.040;2023-07-02T07:49:07;4.82;;;2.72;;
50379;SDS011;37474;59.468;18.040;2023-07-02T07:51:36;3.45;;;2.80;;
50379;SDS011;37474;59.468;18.040;2023-07-02T07:54:06;4.47;;;3.00;;
50379;SDS011;37474;59.468;18.040;2023-07-02T07:56:35;2.95;;;2.55;;
50379;SDS011;37474;59.468;18.040;2023-07-02T07:59:04;4.20;;;2.78;;
50379;SDS011;37474;59.468;18.040;2023-07-02T08:01:33;3.92;;;2.60;;
50379;SDS011;37474;59.468;18.040;2023-07-02T08:04:02;4.90;;;2.72;;
50379;SDS011;37474;59.468;18.040;2023-07-02T08:06:31;3.60;;;2.90;;
50379;SDS011;37474;59.468;18.040;2023-07-02T08:09:00;3.90;;;3.20;;
50379;SDS011;37474;59.468;18.040;2023-07-02T08:11:31;3.40;;;2.72;;
50379;SDS011;37474;59.468;18.040;2023-07-02T08:14:01;3.97;;;3.00;;
50379;SDS011;37474;59.468;18.040;2023-07-02T08:16:29;4.47;;;2.63;;
50379;SDS011;37474;59.468;18.040;2023-07-02T08:18:58;4.57;;;2.53;;
50379;SDS011;37474;59.468;18.040;2023-07-02T08:21:27;4.35;;;3.28;;
50379;SDS011;37474;59.468;18.040;2023-07-02T08:23:56;3.92;;;3.20;;
50379;SDS011;37474;59.468;18.040;2023-07-02T08:26:27;4.03;;;3.25;;
50379;SDS011;37474;59.468;18.040;2023-07-02T08:29:06;6.93;;;3.72;;
50379;SDS011;37474;59.468;18.040;2023-07-02T08:31:35;3.75;;;3.30;;
50379;SDS011;37474;59.468;18.040;2023-07-02T08:34:04;4.78;;;3.33;;
50379;SDS011;37474;59.468;18.040;2023-07-02T08:36:33;7.70;;;4.10;;
50379;SDS011;37474;59.468;18.040;2023-07-02T08:39:02;5.10;;;3.60;;
50379;SDS011;37474;59.468;18.040;2023-07-02T08:41:42;5.85;;;4.30;;
50379;SDS011;37474;59.468;18.040;2023-07-02T08:44:12;5.82;;;4.45;;
50379;SDS011;37474;59.468;18.040;2023-07-02T08:46:42;7.97;;;4.32;;
50379;SDS011;37474;59.468;18.040;2023-07-02T08:49:11;5.38;;;4.45;;
50379;SDS011;37474;59.468;18.040;2023-07-02T08:51:40;7.88;;;5.00;;
50379;SDS011;37474;59.468;18.040;2023-07-02T08:54:09;6.63;;;4.70;;
50379;SDS011;37474;59.468;18.040;2023-07-02T08:56:38;5.43;;;4.63;;
50379;SDS011;37474;59.468;18.040;2023-07-02T08:59:09;7.23;;;5.07;;
50379;SDS011;37474;59.468;18.040;2023-07-02T09:01:44;8.07;;;5.00;;
50379;SDS011;37474;59.468;18.040;2023-07-02T09:04:17;10.85;;;5.18;;
50379;SDS011;37474;59.468;18.040;2023-07-02T09:06:47;7.63;;;4.72;;
50379;SDS011;37474;59.468;18.040;2023-07-02T09:09:17;10.82;;;5.65;;
50379;SDS011;37474;59.468;18.040;2023-07-02T09:11:46;8.07;;;5.57;;
50379;SDS011;37474;59.468;18.040;2023-07-02T09:44:12;8.95;;;6.75;;
50379;SDS011;37474;59.468;18.040;2023-07-02T09:46:43;8.77;;;6.90;;
50379;SDS011;37474;59.468;18.040;2023-07-02T09:49:18;8.40;;;6.25;;
50379;SDS011;37474;59.468;18.040;2023-07-02T09:51:50;8.40;;;6.75;;
50379;SDS011;37474;59.468;18.040;2023-07-02T09:54:20;7.78;;;6.38;;
50379;SDS011;37474;59.468;18.040;2023-07-02T09:56:50;8.13;;;6.10;;
50379;SDS011;37474;59.468;18.040;2023-07-02T09:59:19;7.25;;;6.00;;
50379;SDS011;37474;59.468;18.040;2023-07-02T10:01:49;7.43;;;6.03;;
50379;SDS011;37474;59.468;18.040;2023-07-02T10:04:19;6.13;;;5.40;;
50379;SDS011;37474;59.468;18.040;2023-07-02T10:06:51;6.80;;;5.13;;
50379;SDS011;37474;59.468;18.040;2023-07-02T10:12:14;6.72;;;5.63;;
50379;SDS011;37474;59.468;18.040;2023-07-02T10:14:44;6.72;;;4.72;;
50379;SDS011;37474;59.468;18.040;2023-07-02T10:17:24;5.55;;;4.65;;
50379;SDS011;37474;59.468;18.040;2023-07-02T10:19:56;5.93;;;4.55;;
50379;SDS011;37474;59.468;18.040;2023-07-02T10:24:55;5.65;;;4.18;;
50379;SDS011;37474;59.468;18.040;2023-07-02T10:27:35;4.78;;;4.30;;
50379;SDS011;37474;59.468;18.040;2023-07-02T10:30:05;6.68;;;4.45;;
50379;SDS011;37474;59.468;18.040;2023-07-02T10:32:37;4.63;;;3.97;;
50379;SDS011;37474;59.468;18.040;2023-07-02T10:35:13;4.38;;;3.75;;
50379;SDS011;37474;59.468;18.040;2023-07-02T10:37:43;6.07;;;3.88;;
50379;SDS011;37474;59.468;18.040;2023-07-02T10:40:13;5.90;;;3.75;;
50379;SDS011;37474;59.468;18.040;2023-07-02T10:42:46;4.25;;;3.22;;
50379;SDS011;37474;59.468;18.040;2023-07-02T10:45:16;3.80;;;3.50;;
50379;SDS011;37474;59.468;18.040;2023-07-02T10:47:46;4.53;;;4.10;;
50379;SDS011;37474;59.468;18.040;2023-07-02T10:50:15;4.25;;;3.60;;
50379;SDS011;37474;59.468;18.040;2023-07-02T10:52:45;4.40;;;3.70;;
50379;SDS011;37474;59.468;18.040;2023-07-02T10:55:19;3.75;;;3.35;;
50379;SDS011;37474;59.468;18.040;2023-07-02T10:57:50;4.37;;;3.67;;
50379;SDS011;37474;59.468;18.040;2023-07-02T11:00:31;3.80;;;3.40;;
50379;SDS011;37474;59.468;18.040;2023-07-02T11:03:02;4.53;;;3.55;;
50379;SDS011;37474;59.468;18.040;2023-07-02T11:05:32;3.75;;;3.45;;
50379;SDS011;37474;59.468;18.040;2023-07-02T11:08:07;4.15;;;3.47;;
50379;SDS011;37474;59.468;18.040;2023-07-02T11:10:36;4.20;;;3.78;;
50379;SDS011;37474;59.468;18.040;2023-07-02T11:13:13;4.22;;;3.83;;
50379;SDS011;37474;59.468;18.040;2023-07-02T11:15:44;3.95;;;3.47;;
50379;SDS011;37474;59.468;18.040;2023-07-02T11:18:16;4.07;;;3.50;;
50379;SDS011;37474;59.468;18.040;2023-07-02T11:20:48;3.85;;;3.20;;
50379;SDS011;37474;59.468;18.040;2023-07-02T11:23:17;3.95;;;3.20;;
50379;SDS011;37474;59.468;18.040;2023-07-02T11:25:55;3.97;;;3.28;;
50379;SDS011;37474;59.468;18.040;2023-07-02T11:28:28;4.18;;;3.40;;
50379;SDS011;37474;59.468;18.040;2023-07-02T11:30:58;4.93;;;3.42;;
50379;SDS011;37474;59.468;18.040;2023-07-02T11:33:32;3.42;;;3.13;;
50379;SDS011;37474;59.468;18.040;2023-07-02T11:36:02;5.15;;;3.30;;
50379;SDS011;37474;59.468;18.040;2023-07-02T11:38:33;7.20;;;2.92;;
50379;SDS011;37474;59.468;18.040;2023-07-02T11:41:02;4.43;;;3.40;;
50379;SDS011;37474;59.468;18.040;2023-07-02T11:43:33;3.67;;;3.17;;
50379;SDS011;37474;59.468;18.040;2023-07-02T11:46:02;4.20;;;3.33;;
50379;SDS011;37474;59.468;18.040;2023-07-02T11:48:32;4.50;;;3.08;;
50379;SDS011;37474;59.468;18.040;2023-07-02T11:51:02;4.50;;;3.00;;
50379;SDS011;37474;59.468;18.040;2023-07-02T11:53:31;3.65;;;3.08;;
50379;SDS011;37474;59.468;18.040;2023-07-02T11:56:00;4.60;;;3.28;;
50379;SDS011;37474;59.468;18.040;2023-07-02T11:58:30;3.88;;;3.42;;
50379;SDS011;37474;59.468;18.040;2023-07-02T12:01:00;4.97;;;3.58;;
50379;SDS011;37474;59.468;18.040;2023-07-02T12:03:30;4.20;;;3.03;;
50379;SDS011;37474;59.468;18.040;2023-07-02T12:05:58;3.35;;;3.03;;
50379;SDS011;37474;59.468;18.040;2023-07-02T12:08:28;4.00;;;3.47;;
50379;SDS011;37474;59.468;18.040;2023-07-02T12:10:56;3.55;;;3.05;;
50379;SDS011;37474;59.468;18.040;2023-07-02T12:13:26;4.90;;;3.53;;
50379;SDS011;37474;59.468;18.040;2023-07-02T12:15:55;4.20;;;3.80;;
50379;SDS011;37474;59.468;18.040;2023-07-02T12:18:25;5.20;;;3.40;;
50379;SDS011;37474;59.468;18.040;2023-07-02T12:20:54;4.35;;;3.60;;
50379;SDS011;37474;59.468;18.040;2023-07-02T12:23:23;3.30;;;3.00;;
50379;SDS011;37474;59.468;18.040;2023-07-02T12:25:52;4.30;;;2.85;;
50379;SDS011;37474;59.468;18.040;2023-07-02T12:28:21;5.32;;;3.42;;
50379;SDS011;37474;59.468;18.040;2023-07-02T12:30:50;4.03;;;3.53;;
50379;SDS011;37474;59.468;18.040;2023-07-02T12:33:20;4.30;;;3.90;;
50379;SDS011;37474;59.468;18.040;2023-07-02T12:35:50;3.90;;;3.47;;
50379;SDS011;37474;59.468;18.040;2023-07-02T12:38:19;5.35;;;3.80;;
50379;SDS011;37474;59.468;18.040;2023-07-02T12:40:48;6.13;;;4.07;;
50379;SDS011;37474;59.468;18.040;2023-07-02T12:43:17;7.90;;;4.80;;
50379;SDS011;37474;59.468;18.040;2023-07-02T12:45:47;6.07;;;4.80;;
50379;SDS011;37474;59.468;18.040;2023-07-02T12:48:16;5.65;;;4.78;;
50379;SDS011;37474;59.468;18.040;2023-07-02T12:50:54;6.05;;;4.97;;
50379;SDS011;37474;59.468;18.040;2023-07-02T12:55:55;6.70;;;4.70;;
50379;SDS011;37474;59.468;18.040;2023-07-02T12:58:24;7.10;;;4.85;;
50379;SDS011;37474;59.468;18.040;2023-07-02T13:00:53;7.38;;;5.10;;
50379;SDS011;37474;59.468;18.040;2023-07-02T13:03:22;5.30;;;4.70;;
50379;SDS011;37474;59.468;18.040;2023-07-02T13:05:52;6.88;;;5.35;;
50379;SDS011;37474;59.468;18.040;2023-07-02T13:08:22;6.05;;;5.28;;
50379;SDS011;37474;59.468;18.040;2023-07-02T13:10:51;7.65;;;4.80;;
50379;SDS011;37474;59.468;18.040;2023-07-02T13:13:20;7.15;;;4.72;;
50379;SDS011;37474;59.468;18.040;2023-07-02T13:15:53;6.68;;;5.50;;
50379;SDS011;37474;59.468;18.040;2023-07-02T13:18:22;5.75;;;4.75;;
50379;SDS011;37474;59.468;18.040;2023-07-02T13:20:51;10.23;;;5.53;;
50379;SDS011;37474;59.468;18.040;2023-07-02T13:23:22;7.13;;;6.32;;
50379;SDS011;37474;59.468;18.040;2023-07-02T13:28:20;8.30;;;6.72;;
50379;SDS011;37474;59.468;18.040;2023-07-02T13:30:52;8.13;;;6.90;;
50379;SDS011;37474;59.468;18.040;2023-07-02T13:33:21;9.50;;;6.43;;
50379;SDS011;37474;59.468;18.040;2023-07-02T13:35:50;8.57;;;6.90;;
50379;SDS011;37474;59.468;18.040;2023-07-02T13:38:19;8.45;;;7.07;;
50379;SDS011;37474;59.468;18.040;2023-07-02T13:40:49;12.23;;;6.82;;
50379;SDS011;37474;59.468;18.040;2023-07-02T13:43:19;7.85;;;6.05;;
50379;SDS011;37474;59.468;18.040;2023-07-02T13:45:49;7.78;;;6.32;;
50379;SDS011;37474;59.468;18.040;2023-07-02T13:48:18;7.93;;;6.10;;
50379;SDS011;37474;59.468;18.040;2023-07-02T13:50:48;8.75;;;6.75;;
50379;SDS011;37474;59.468;18.040;2023-07-02T13:53:17;9.57;;;6.68;;
50379;SDS011;37474;59.468;18.040;2023-07-02T13:55:47;8.57;;;6.57;;
50379;SDS011;37474;59.468;18.040;2023-07-02T13:58:18;9.27;;;6.35;;
50379;SDS011;37474;59.468;18.040;2023-07-02T14:00:58;7.82;;;5.88;;
50379;SDS011;37474;59.468;18.040;2023-07-02T14:03:29;7.65;;;6.45;;
50379;SDS011;37474;59.468;18.040;2023-07-02T14:06:02;7.70;;;5.90;;
50379;SDS011;37474;59.468;18.040;2023-07-02T14:08:31;9.38;;;7.10;;
50379;SDS011;37474;59.468;18.040;2023-07-02T14:11:01;7.88;;;6.53;;
50379;SDS011;37474;59.468;18.040;2023-07-02T14:13:32;8.45;;;5.70;;
50379;SDS011;37474;59.468;18.040;2023-07-02T14:16:03;7.85;;;6.40;;
50379;SDS011;37474;59.468;18.040;2023-07-02T14:18:32;7.60;;;5.97;;
50379;SDS011;37474;59.468;18.040;2023-07-02T14:21:02;8.75;;;6.13;;
50379;SDS011;37474;59.468;18.040;2023-07-02T14:23:31;8.27;;;5.83;;
50379;SDS011;37474;59.468;18.040;2023-07-02T14:26:00;7.32;;;5.68;;
50379;SDS011;37474;59.468;18.040;2023-07-02T14:28:32;5.70;;;5.10;;
50379;SDS011;37474;59.468;18.040;2023-07-02T14:31:03;8.40;;;5.43;;
50379;SDS011;37474;59.468;18.040;2023-07-02T14:33:34;6.75;;;5.03;;
50379;SDS011;37474;59.468;18.040;2023-07-02T14:36:04;7.45;;;4.38;;
50379;SDS011;37474;59.468;18.040;2023-07-02T14:38:35;5.10;;;4.15;;
50379;SDS011;37474;59.468;18.040;2023-07-02T14:41:04;6.15;;;4.13;;
50379;SDS011;37474;59.468;18.040;2023-07-02T14:43:35;5.90;;;4.03;;
50379;SDS011;37474;59.468;18.040;2023-07-02T14:46:06;5.95;;;4.82;;
50379;SDS011;37474;59.468;18.040;2023-07-02T14:48:35;6.78;;;4.32;;
50379;SDS011;37474;59.468;18.040;2023-07-02T14:51:04;5.57;;;4.53;;
50379;SDS011;37474;59.468;18.040;2023-07-02T14:53:34;6.43;;;4.88;;
50379;SDS011;37474;59.468;18.040;2023-07-02T14:56:04;5.82;;;4.35;;
50379;SDS011;37474;59.468;18.040;2023-07-02T14:58:32;7.65;;;4.30;;
50379;SDS011;37474;59.468;18.040;2023-07-02T15:01:01;7.10;;;4.20;;
50379;SDS011;37474;59.468;18.040;2023-07-02T15:03:32;5.13;;;4.03;;
50379;SDS011;37474;59.468;18.040;2023-07-02T15:06:08;5.72;;;4.82;;
50379;SDS011;37474;59.468;18.040;2023-07-02T15:08:38;8.82;;;5.93;;
50379;SDS011;37474;59.468;18.040;2023-07-02T15:11:07;7.10;;;4.75;;
50379;SDS011;37474;59.468;18.040;2023-07-02T15:13:36;5.50;;;4.47;;
50379;SDS011;37474;59.468;18.040;2023-07-02T15:16:05;6.03;;;4.38;;
50379;SDS011;37474;59.468;18.040;2023-07-02T15:18:35;5.45;;;3.92;;
50379;SDS011;37474;59.468;18.040;2023-07-02T15:23:33;5.03;;;3.60;;
50379;SDS011;37474;59.468;18.040;2023-07-02T15:26:02;5.20;;;3.72;;
50379;SDS011;37474;59.468;18.040;2023-07-02T15:28:32;4.90;;;3.42;;
50379;SDS011;37474;59.468;18.040;2023-07-02T15:31:03;5.03;;;3.55;;
50379;SDS011;37474;59.468;18.040;2023-07-02T15:33:33;4.72;;;3.85;;